Time;durP1;ratioP1;P1;durP2;ratioP2;P2;SDS_P1;SDS_P2;PMS_P1;PMS_P2;Temp;Humidity;BMP_temperature;BMP_pressure;BME280_temperature;BME280_humidity;BME280_pressure;Samples;Min_cycle;Max_cycle;Signal;HPM_P1;HPM_P2
2022/12/24 00:05:42;;;;;;;21.77;6.60;;;11.20;99.90;;;;;;2616308;54;20135;-79
2022/12/24 00:11:30;;;;;;;9.80;4.83;;;11.30;99.90;;;;;;2617612;54;20189;-79
2022/12/24 00:17:18;;;;;;;23.30;6.30;;;11.30;99.90;;;;;;2617183;54;20237;-80
2022/12/24 00:23:07;;;;;;;11.90;4.03;;;11.30;99.90;;;;;;2617380;54;20130;-80
2022/12/24 00:28:55;;;;;;;18.87;4.50;;;11.40;99.90;;;;;;2616151;54;20535;-75
2022/12/24 00:34:43;;;;;;;19.17;5.30;;;11.30;99.90;;;;;;2615623;54;20193;-76
2022/12/24 00:40:31;;;;;;;17.53;4.40;;;11.30;99.90;;;;;;2616123;54;20130;-77
2022/12/24 00:46:19;;;;;;;23.93;4.80;;;11.30;99.90;;;;;;2616843;54;20520;-75
2022/12/24 00:52:06;;;;;;;23.13;4.60;;;11.30;99.90;;;;;;2616541;54;20154;-75
2022/12/24 00:57:54;;;;;;;19.00;5.30;;;11.30;99.90;;;;;;2615027;54;20648;-77
2022/12/24 01:03:42;;;;;;;22.90;5.17;;;11.30;99.90;;;;;;2615906;54;20138;-78
2022/12/24 01:06:45;;;;;;;29.77;5.57;;;11.30;99.90;;;;;;2615191;54;20952;-79
2022/12/24 01:09:12;;;;;;;18.23;5.20;;;11.20;99.90;;;;;;2614672;51;20470;-79
2022/12/24 01:11:38;;;;;;;16.53;5.57;;;11.20;99.90;;;;;;2614162;47;20461;-81
2022/12/24 01:24:18;;;;;;;35.93;6.50;;;11.20;99.90;;;;;;2615923;54;20387;-80
2022/12/24 01:30:07;;;;;;;19.67;4.67;;;11.00;99.90;;;;;;2615707;54;20134;-80
2022/12/24 01:35:54;;;;;;;14.73;5.80;;;11.00;99.90;;;;;;2615778;54;20371;-80
2022/12/24 01:47:52;;;;;;;20.63;7.43;;;11.00;99.90;;;;;;2615399;54;21026;-79
2022/12/24 01:53:43;;;;;;;15.27;5.03;;;10.90;99.90;;;;;;2614382;54;20180;-80
2022/12/24 01:59:32;;;;;;;12.63;4.47;;;10.80;99.90;;;;;;2614805;54;20404;-80
2022/12/24 02:05:27;;;;;;;16.17;4.73;;;10.80;99.90;;;;;;2615595;54;20909;-79
2022/12/24 02:11:17;;;;;;;12.87;5.53;;;10.80;99.90;;;;;;2616061;54;20440;-80
2022/12/24 02:23:06;;;;;;;20.90;5.77;;;10.70;99.90;;;;;;2615743;54;20972;-80
2022/12/24 02:35:35;;;;;;;25.07;4.23;;;10.50;99.90;;;;;;2615275;54;20363;-80
2022/12/24 02:41:27;;;;;;;22.23;5.37;;;10.50;99.90;;;;;;2615526;54;20418;-80
2022/12/24 02:47:17;;;;;;;20.57;7.70;;;10.60;99.90;;;;;;2616125;54;20422;-79
2022/12/24 02:53:08;;;;;;;12.73;4.13;;;10.60;99.90;;;;;;2614996;54;20387;-80
2022/12/24 03:21:41;;;;;;;23.60;6.27;;;10.30;99.90;;;;;;2615028;54;20511;-76
2022/12/24 03:27:31;;;;;;;23.97;7.93;;;10.40;99.90;;;;;;2614542;54;20507;-76
2022/12/24 03:33:19;;;;;;;17.33;6.07;;;10.40;99.90;;;;;;2617228;54;20443;-79
2022/12/24 03:35:45;;;;;;;19.23;5.80;;;10.40;99.90;;;;;;2616478;54;20423;-79
2022/12/24 03:38:10;;;;;;;19.30;5.67;;;10.40;99.90;;;;;;2617457;54;20423;-79
2022/12/24 03:43:58;;;;;;;22.23;5.40;;;10.50;99.90;;;;;;2615546;54;20659;-75
2022/12/24 03:49:46;;;;;;;18.67;4.73;;;10.40;99.90;;;;;;2614765;54;20134;-75
2022/12/24 03:55:34;;;;;;;19.50;5.80;;;10.40;99.90;;;;;;2614479;54;20151;-78
2022/12/24 04:01:21;;;;;;;18.70;5.60;;;10.50;99.90;;;;;;2618742;54;20142;-80
2022/12/24 04:07:09;;;;;;;20.70;5.70;;;10.50;99.90;;;;;;2615314;54;20121;-78
2022/12/24 04:12:57;;;;;;;22.60;5.33;;;10.40;99.90;;;;;;2616392;54;20134;-79
2022/12/24 04:18:45;;;;;;;20.27;5.00;;;10.40;99.90;;;;;;2616664;39;20604;-80
2022/12/24 04:24:32;;;;;;;17.03;5.07;;;10.50;99.90;;;;;;2616630;54;20585;-79
2022/12/24 04:30:20;;;;;;;18.07;5.10;;;10.40;99.90;;;;;;2617034;54;20134;-78
2022/12/24 04:36:13;;;;;;;17.93;3.93;;;10.40;99.90;;;;;;2616346;54;20138;-78
2022/12/24 04:42:01;;;;;;;13.10;4.20;;;10.50;99.90;;;;;;2616554;54;20371;-79
2022/12/24 04:47:48;;;;;;;22.40;5.90;;;10.50;99.90;;;;;;2616364;54;20162;-79
2022/12/24 04:53:37;;;;;;;20.40;6.30;;;10.50;99.90;;;;;;2616354;54;20138;-79
2022/12/24 04:59:25;;;;;;;10.63;3.87;;;10.50;99.90;;;;;;2615670;54;20364;-79
2022/12/24 05:05:12;;;;;;;8.77;3.20;;;10.60;99.90;;;;;;2613905;54;20162;-79
2022/12/24 05:11:01;;;;;;;18.17;5.27;;;10.50;99.90;;;;;;2614874;54;20166;-79
2022/12/24 05:21:04;;;;;;;15.50;6.43;;;10.70;99.90;;;;;;2614359;54;20402;-79
2022/12/24 05:26:54;;;;;;;12.13;5.27;;;10.70;99.90;;;;;;2614966;54;20427;-79
2022/12/24 05:32:42;;;;;;;16.87;5.30;;;10.70;99.90;;;;;;2614641;54;20482;-79
2022/12/24 05:38:30;;;;;;;11.07;4.70;;;10.80;99.90;;;;;;2613740;54;21120;-79
2022/12/24 05:44:17;;;;;;;17.03;4.80;;;10.70;99.90;;;;;;2613044;54;20130;-79
2022/12/24 05:50:06;;;;;;;17.93;6.57;;;10.70;99.90;;;;;;2615127;54;20231;-79
2022/12/24 05:55:54;;;;;;;12.37;5.90;;;10.60;99.90;;;;;;2615030;54;20363;-79
2022/12/24 06:01:45;;;;;;;16.03;6.93;;;10.60;99.90;;;;;;2615106;54;20170;-79
2022/12/24 06:07:33;;;;;;;24.70;5.30;;;10.60;99.90;;;;;;2617719;54;20516;-79
2022/12/24 06:13:21;;;;;;;14.47;5.13;;;10.60;99.90;;;;;;2616927;54;20375;-80
2022/12/24 06:16:32;;;;;;;10.67;4.93;;;10.60;99.90;;;;;;2618322;39;20865;-80
2022/12/24 06:22:35;;;;;;;17.80;5.50;;;10.70;99.90;;;;;;2617816;54;20435;-80
2022/12/24 06:28:26;;;;;;;15.10;5.33;;;10.70;99.90;;;;;;2615307;54;21709;-80
2022/12/24 06:34:13;;;;;;;19.23;5.57;;;10.70;99.90;;;;;;2616679;46;20903;-79
2022/12/24 06:40:01;;;;;;;22.23;5.17;;;10.60;99.90;;;;;;2615991;54;20145;-80
2022/12/24 06:45:49;;;;;;;11.10;4.07;;;10.70;99.90;;;;;;2616970;54;20127;-81
2022/12/24 06:51:38;;;;;;;16.37;5.80;;;10.70;99.90;;;;;;2617183;54;20217;-80
2022/12/24 06:57:25;;;;;;;21.07;5.93;;;10.70;99.90;;;;;;2616390;54;20462;-80
2022/12/24 07:03:13;;;;;;;18.00;6.33;;;10.60;99.90;;;;;;2614577;54;20218;-79
2022/12/24 07:09:01;;;;;;;16.50;5.37;;;10.60;99.90;;;;;;2614935;54;20118;-79
2022/12/24 07:14:49;;;;;;;13.53;5.10;;;10.70;99.90;;;;;;2611195;54;20453;-79
2022/12/24 07:18:04;;;;;;;21.63;6.17;;;10.70;99.90;;;;;;2614726;39;20917;-79
2022/12/24 07:20:30;;;;;;;14.20;6.03;;;10.70;99.90;;;;;;2613908;54;20159;-80
2022/12/24 07:26:17;;;;;;;15.50;5.50;;;10.70;99.90;;;;;;2614631;54;20133;-80
2022/12/24 07:32:06;;;;;;;20.37;6.80;;;10.70;99.90;;;;;;2614635;54;20375;-79
2022/12/24 07:37:54;;;;;;;17.63;6.57;;;10.80;99.90;;;;;;2613031;54;20932;-79
2022/12/24 07:43:42;;;;;;;17.63;8.03;;;10.60;99.90;;;;;;2615958;39;20517;-79
2022/12/24 07:49:29;;;;;;;20.97;7.07;;;10.60;99.90;;;;;;2615397;54;20265;-80
2022/12/24 07:55:17;;;;;;;23.87;7.17;;;10.60;99.90;;;;;;2614785;54;20123;-79
2022/12/24 08:01:05;;;;;;;18.60;7.23;;;10.70;99.90;;;;;;2614729;46;20142;-78
2022/12/24 08:06:53;;;;;;;13.23;5.00;;;10.60;99.90;;;;;;2613395;54;20145;-79
2022/12/24 08:12:41;;;;;;;18.40;5.60;;;10.70;99.90;;;;;;2612818;54;20126;-79
2022/12/24 08:22:35;;;;;;;16.00;5.33;;;10.70;99.90;;;;;;2613421;54;20383;-79
2022/12/24 08:28:22;;;;;;;25.77;6.23;;;10.70;99.90;;;;;;2614596;39;20760;-78
2022/12/24 08:34:10;;;;;;;16.90;5.70;;;10.70;99.90;;;;;;2616536;54;20153;-81
2022/12/24 08:39:58;;;;;;;16.50;6.30;;;10.60;99.90;;;;;;2616983;54;20407;-81
2022/12/24 08:45:48;;;;;;;28.07;6.73;;;10.70;99.90;;;;;;2616809;54;20658;-81
2022/12/24 08:51:36;;;;;;;25.47;6.43;;;10.70;99.90;;;;;;2616739;39;20806;-80
2022/12/24 08:57:24;;;;;;;21.63;8.87;;;10.70;99.90;;;;;;2615053;54;20142;-78
2022/12/24 09:03:14;;;;;;;20.70;6.07;;;10.70;99.90;;;;;;2616080;54;21062;-80
2022/12/24 09:09:03;;;;;;;17.77;5.53;;;10.90;99.90;;;;;;2616957;54;20398;-79
2022/12/24 09:14:51;;;;;;;24.33;7.10;;;11.00;99.90;;;;;;2616034;54;20597;-81
2022/12/24 09:18:04;;;;;;;24.17;7.47;;;11.10;99.90;;;;;;2615861;54;20969;-80
2022/12/24 09:20:30;;;;;;;19.17;5.93;;;11.10;99.90;;;;;;2615820;54;20419;-79
2022/12/24 09:26:28;;;;;;;12.40;5.80;;;11.00;99.90;;;;;;2616498;39;20849;-78
2022/12/24 09:32:16;;;;;;;19.00;5.60;;;11.00;99.90;;;;;;2614876;54;20950;-79
2022/12/24 09:38:04;;;;;;;17.60;6.43;;;11.10;99.90;;;;;;2615062;54;20383;-79
2022/12/24 09:54:48;;;;;;;20.60;7.20;;;11.30;99.90;;;;;;2615680;54;20952;-78
2022/12/24 10:00:36;;;;;;;24.20;6.37;;;11.30;99.90;;;;;;2613776;54;20434;-80
2022/12/24 10:17:24;;;;;;;15.03;5.80;;;11.40;99.90;;;;;;2614305;54;20468;-80
2022/12/24 10:27:07;;;;;;;35.27;6.67;;;11.60;99.90;;;;;;2613317;54;20460;-79
2022/12/24 10:32:55;;;;;;;31.53;6.70;;;11.80;99.90;;;;;;2612567;54;20556;-79
2022/12/24 10:38:43;;;;;;;16.87;5.73;;;11.90;99.90;;;;;;2610222;54;20459;-78
2022/12/24 10:44:32;;;;;;;21.30;5.40;;;11.60;99.90;;;;;;2614018;46;20403;-79
2022/12/24 10:56:49;;;;;;;21.37;6.33;;;11.50;99.90;;;;;;2614323;54;20535;-80
2022/12/24 11:02:38;;;;;;;18.17;6.70;;;11.60;99.90;;;;;;2615333;31;20843;-80
2022/12/24 11:08:26;;;;;;;17.00;7.90;;;11.70;99.90;;;;;;2615776;39;20790;-79
2022/12/24 11:14:18;;;;;;;22.70;8.50;;;12.20;99.90;;;;;;2613255;54;20238;-80
2022/12/24 11:23:28;;;;;;;17.20;5.80;;;11.60;99.90;;;;;;2614998;54;20415;-80
2022/12/24 11:29:19;;;;;;;24.50;9.80;;;11.70;99.90;;;;;;2615515;54;20507;-80
2022/12/24 11:41:38;;;;;;;22.30;8.23;;;11.60;99.90;;;;;;2612372;54;20444;-80
2022/12/24 11:47:37;;;;;;;19.03;8.83;;;11.60;99.90;;;;;;2615271;54;20463;-81
2022/12/24 12:05:53;;;;;;;24.10;9.47;;;11.70;99.90;;;;;;2613563;54;20404;-80
2022/12/24 12:11:43;;;;;;;20.90;8.30;;;11.60;99.90;;;;;;2613076;54;20951;-80
2022/12/24 12:24:06;;;;;;;9.40;5.93;;;11.70;99.90;;;;;;2615112;54;21071;-81
2022/12/24 12:39:56;;;;;;;20.47;10.77;;;11.70;99.90;;;;;;2614023;54;20571;-80
2022/12/24 12:59:04;;;;;;;25.67;7.10;;;12.10;99.90;;;;;;2612999;54;20383;-80
2022/12/24 13:17:56;;;;;;;17.33;6.70;;;12.40;99.90;;;;;;2615134;39;20824;-80
2022/12/24 13:33:39;;;;;;;14.90;6.90;;;12.40;99.90;;;;;;2614939;54;20399;-76
2022/12/24 13:39:27;;;;;;;21.13;6.90;;;11.90;99.90;;;;;;2614794;54;20162;-76
2022/12/24 13:45:30;;;;;;;19.97;6.50;;;11.80;99.90;;;;;;2615709;54;20138;-79
2022/12/24 13:51:24;;;;;;;19.47;6.07;;;11.80;99.90;;;;;;2614192;54;20363;-80
2022/12/24 14:03:57;;;;;;;17.03;7.60;;;12.50;99.90;;;;;;2615699;54;20362;-79
2022/12/24 14:09:49;;;;;;;20.27;7.87;;;12.60;99.90;;;;;;2615630;54;20419;-80
2022/12/24 14:15:49;;;;;;;26.93;7.40;;;12.20;99.90;;;;;;2614418;54;20396;-80
2022/12/24 14:28:17;;;;;;;17.90;7.73;;;11.90;99.90;;;;;;2612845;54;20473;-80
2022/12/24 14:34:11;;;;;;;20.83;7.03;;;11.70;99.90;;;;;;2615258;54;20387;-82
2022/12/24 14:39:59;;;;;;;18.97;6.90;;;11.60;99.90;;;;;;2620135;54;20395;-82
2022/12/24 14:46:13;;;;;;;12.07;7.57;;;11.50;99.90;;;;;;2619868;54;20139;-83
2022/12/24 14:52:03;;;;;;;23.53;14.90;;;11.40;99.90;;;;;;2619717;54;20391;-81
2022/12/24 15:04:18;;;;;;;12.60;7.83;;;11.20;99.90;;;;;;2619158;54;20419;-83
2022/12/24 15:17:02;;;;;;;17.00;8.10;;;10.80;99.90;;;;;;2618231;39;20856;-83
2022/12/24 15:29:39;;;;;;;21.23;7.80;;;10.70;99.90;;;;;;2621257;54;20412;-85
2022/12/24 15:48:09;;;;;;;18.07;8.77;;;10.00;99.90;;;;;;2617318;54;20391;-83
2022/12/24 15:54:07;;;;;;;22.63;10.23;;;9.80;99.90;;;;;;2617762;54;20391;-79
2022/12/24 16:06:12;;;;;;;27.43;16.63;;;9.70;99.90;;;;;;2614549;54;20375;-79
2022/12/24 16:12:00;;;;;;;29.53;11.10;;;9.50;99.90;;;;;;2615610;39;20795;-82
2022/12/24 16:17:48;;;;;;;27.97;11.50;;;9.40;99.90;;;;;;2617144;54;21204;-82
2022/12/24 16:29:51;;;;;;;42.10;19.23;;;8.90;99.90;;;;;;2618155;54;20391;-82
2022/12/24 16:35:39;;;;;;;25.50;10.60;;;8.70;99.90;;;;;;2616674;54;20651;-82
2022/12/24 16:41:27;;;;;;;20.93;9.57;;;8.60;99.90;;;;;;2617663;54;20138;-82
2022/12/24 16:47:19;;;;;;;17.03;8.40;;;8.50;99.90;;;;;;2616192;54;20147;-83
2022/12/24 16:53:11;;;;;;;26.17;8.30;;;8.70;99.90;;;;;;2617758;54;20460;-83
2022/12/24 16:58:59;;;;;;;21.07;9.00;;;8.30;99.90;;;;;;2616761;54;20399;-83
2022/12/24 17:04:48;;;;;;;20.37;10.23;;;8.10;99.90;;;;;;2617452;39;20533;-83
2022/12/24 17:10:36;;;;;;;19.43;10.10;;;7.90;99.90;;;;;;2617111;54;20503;-83
2022/12/24 17:16:24;;;;;;;22.70;10.43;;;7.40;99.90;;;;;;2616398;54;20384;-82
2022/12/24 17:22:12;;;;;;;27.83;11.17;;;7.10;99.90;;;;;;2616418;54;20211;-81
2022/12/24 17:28:00;;;;;;;26.07;10.00;;;7.10;99.90;;;;;;2616409;54;20126;-82
2022/12/24 17:33:49;;;;;;;26.73;11.47;;;6.90;99.90;;;;;;2616923;54;20277;-80
2022/12/24 17:39:38;;;;;;;21.50;10.13;;;6.80;99.90;;;;;;2616247;54;20399;-79
2022/12/24 17:45:26;;;;;;;30.30;12.90;;;6.80;99.90;;;;;;2616636;54;20363;-82
2022/12/24 17:51:16;;;;;;;34.73;12.63;;;7.00;99.90;;;;;;2616459;54;20199;-81
2022/12/24 17:57:04;;;;;;;17.10;10.70;;;6.70;99.90;;;;;;2616973;54;20407;-83
2022/12/24 18:02:52;;;;;;;22.73;10.60;;;6.90;99.90;;;;;;2616150;54;20714;-83
2022/12/24 18:08:41;;;;;;;36.40;16.30;;;6.80;99.90;;;;;;2616897;54;20448;-83
2022/12/24 18:14:29;;;;;;;42.60;21.90;;;7.00;99.90;;;;;;2617286;39;20742;-82
2022/12/24 18:20:18;;;;;;;35.43;16.00;;;7.10;99.90;;;;;;2616051;54;20150;-82
2022/12/24 18:22:44;;;;;;;39.27;14.87;;;7.00;99.90;;;;;;2616477;54;20422;-82
2022/12/24 18:25:12;;;;;;;36.07;15.70;;;7.00;99.90;;;;;;2615809;54;20937;-82
2022/12/24 18:31:02;;;;;;;35.97;14.73;;;7.20;99.90;;;;;;2615976;54;20434;-82
2022/12/24 18:36:49;;;;;;;43.40;13.60;;;7.10;99.90;;;;;;2616850;54;20362;-83
2022/12/24 18:42:41;;;;;;;32.23;12.77;;;7.60;99.90;;;;;;2616153;39;20563;-84
2022/12/24 18:48:28;;;;;;;36.97;16.60;;;7.30;99.90;;;;;;2616487;54;20444;-82
2022/12/24 18:54:16;;;;;;;36.67;12.87;;;7.00;99.90;;;;;;2616961;54;20170;-83
2022/12/24 18:57:20;;;;;;;38.77;12.70;;;7.10;99.90;;;;;;2616155;54;20869;-83
2022/12/24 18:59:45;;;;;;;29.97;10.33;;;7.20;99.90;;;;;;2616753;54;20158;-83
2022/12/24 19:05:33;;;;;;;29.30;12.23;;;7.00;99.90;;;;;;2617266;54;20720;-83
2022/12/24 19:11:21;;;;;;;28.30;12.70;;;6.90;99.90;;;;;;2616354;54;20729;-83
2022/12/24 19:17:09;;;;;;;33.60;11.23;;;6.80;99.90;;;;;;2617726;39;20614;-82
2022/12/24 19:27:12;;;;;;;31.63;12.57;;;6.70;99.90;;;;;;2616939;39;20853;-82
2022/12/24 19:33:00;;;;;;;29.87;13.43;;;6.80;99.90;;;;;;2616334;54;20375;-82
2022/12/24 19:38:47;;;;;;;34.87;15.80;;;6.90;99.90;;;;;;2616455;54;20218;-82
2022/12/24 19:44:35;;;;;;;45.77;14.57;;;6.90;99.90;;;;;;2616014;54;20162;-81
2022/12/24 19:50:22;;;;;;;38.57;13.90;;;6.80;99.90;;;;;;2616315;54;20671;-82
2022/12/24 19:56:13;;;;;;;26.67;12.63;;;6.70;99.90;;;;;;2616428;54;20158;-82
2022/12/24 20:02:01;;;;;;;26.50;13.00;;;7.00;99.90;;;;;;2616853;54;20471;-82
2022/12/24 20:07:49;;;;;;;26.10;12.37;;;7.50;99.90;;;;;;2616382;54;20717;-82
2022/12/24 20:13:38;;;;;;;29.17;14.00;;;7.30;99.90;;;;;;2616149;54;20151;-82
2022/12/24 20:19:25;;;;;;;23.83;13.47;;;7.30;99.90;;;;;;2616125;54;20418;-82
2022/12/24 20:25:24;;;;;;;22.17;13.40;;;7.30;99.90;;;;;;2615353;47;20196;-82
2022/12/24 20:31:15;;;;;;;27.43;13.37;;;7.20;99.90;;;;;;2614978;54;21126;-83
2022/12/24 20:37:03;;;;;;;25.80;13.37;;;7.30;99.90;;;;;;2614915;54;20392;-82
2022/12/24 20:42:53;;;;;;;46.97;16.37;;;7.40;99.90;;;;;;2614043;54;20414;-79
2022/12/24 20:46:15;;;;;;;46.57;16.93;;;7.40;99.90;;;;;;2610846;47;20530;-76
2022/12/24 20:52:02;;;;;;;30.90;13.23;;;7.40;99.90;;;;;;2611246;54;21018;-77
2022/12/24 20:57:51;;;;;;;51.43;16.50;;;7.80;99.90;;;;;;2608448;54;20150;-76
2022/12/24 21:03:38;;;;;;;31.03;14.90;;;8.00;99.90;;;;;;2614048;39;20983;-77
2022/12/24 21:09:26;;;;;;;37.67;12.83;;;8.00;99.90;;;;;;2615146;54;20415;-77
2022/12/24 21:15:23;;;;;;;28.43;13.63;;;8.10;99.90;;;;;;2614884;54;20122;-77
2022/12/24 21:21:11;;;;;;;35.80;13.90;;;8.00;99.90;;;;;;2613517;54;20419;-76
2022/12/24 21:26:59;;;;;;;30.60;13.10;;;7.90;99.90;;;;;;2614112;54;20130;-76
2022/12/24 21:32:47;;;;;;;38.63;13.23;;;7.60;99.90;;;;;;2614147;54;20139;-76
2022/12/24 21:38:35;;;;;;;35.07;13.10;;;7.60;99.90;;;;;;2614633;54;20395;-76
2022/12/24 21:44:22;;;;;;;30.97;13.67;;;7.50;99.90;;;;;;2614547;54;20154;-79
2022/12/24 21:56:19;;;;;;;35.97;12.70;;;8.40;99.90;;;;;;2609245;54;20359;-76
2022/12/24 22:02:10;;;;;;;25.83;10.87;;;8.50;99.90;;;;;;2610449;54;20367;-76
2022/12/24 22:14:03;;;;;;;30.60;9.70;;;8.50;99.90;;;;;;2612277;54;20987;-76
2022/12/24 22:19:50;;;;;;;23.87;10.47;;;8.70;99.90;;;;;;2612965;54;20679;-76
2022/12/24 22:22:41;;;;;;;24.90;11.03;;;8.70;99.90;;;;;;2613072;54;20416;-75
2022/12/24 22:25:07;;;;;;;33.47;10.80;;;8.70;99.90;;;;;;2612791;54;20162;-76
2022/12/24 22:30:55;;;;;;;28.17;10.23;;;8.70;99.90;;;;;;2611727;54;20399;-77
2022/12/24 22:36:42;;;;;;;21.73;8.97;;;8.70;99.90;;;;;;2612470;54;21458;-78
2022/12/24 22:42:31;;;;;;;21.33;8.40;;;8.60;99.90;;;;;;2612947;54;20122;-77
2022/12/24 22:48:19;;;;;;;20.67;8.80;;;8.50;99.90;;;;;;2614323;54;21035;-78
2022/12/24 22:54:07;;;;;;;26.10;9.70;;;8.30;99.90;;;;;;2614151;39;20532;-79
2022/12/24 22:59:55;;;;;;;21.63;8.90;;;8.30;99.90;;;;;;2614879;54;20223;-77
2022/12/24 23:05:43;;;;;;;27.93;9.50;;;8.20;99.90;;;;;;2613720;54;20174;-78
2022/12/24 23:11:31;;;;;;;19.33;8.60;;;8.10;99.90;;;;;;2613778;54;20418;-79
2022/12/24 23:17:19;;;;;;;17.87;8.47;;;8.10;99.90;;;;;;2613275;54;20871;-78
2022/12/24 23:27:13;;;;;;;30.50;10.00;;;7.70;99.90;;;;;;2613929;39;20778;-77
2022/12/24 23:33:00;;;;;;;14.50;8.90;;;7.40;99.90;;;;;;2614108;54;20427;-78
2022/12/24 23:38:48;;;;;;;20.27;8.87;;;7.60;99.90;;;;;;2614264;54;20121;-78
2022/12/24 23:44:35;;;;;;;19.23;8.43;;;7.70;99.90;;;;;;2613968;54;20142;-79
2022/12/24 23:50:24;;;;;;;24.73;9.10;;;7.80;99.90;;;;;;2613577;39;20710;-78
2022/12/24 23:56:12;;;;;;;13.60;6.80;;;8.10;99.90;;;;;;2613515;54;20388;-79
